createdAt,value
2023-08-09T03:25:57.322Z,97544.59
2023-08-09T03:28:29.712Z,97558.47
2023-08-09T03:30:59.289Z,97554.72
2023-08-09T03:33:29.686Z,97558.06
2023-08-09T03:35:58.804Z,97556.06
2023-08-09T03:38:28.098Z,97564.69
2023-08-09T03:40:57.183Z,97560.19
2023-08-09T03:43:26.488Z,97565.91
2023-08-09T03:45:56.647Z,97570.59
2023-08-09T03:48:26.238Z,97575.53
2023-08-09T03:50:55.492Z,97568.25
2023-08-09T03:53:25.086Z,97577.22
2023-08-09T03:55:54.830Z,97576.91
2023-08-09T03:58:23.857Z,97584.56
2023-08-09T04:00:53.938Z,97578.78
2023-08-09T04:03:23.028Z,97579.19
2023-08-09T04:05:51.838Z,97576.53
2023-08-09T04:08:23.894Z,97573.38
2023-08-09T04:10:54.617Z,97581.69
2023-08-09T04:13:24.157Z,97574.06
2023-08-09T04:15:53.025Z,97578.41
2023-08-09T04:18:22.813Z,97591.06
2023-08-09T04:20:52.512Z,97573.09
2023-08-09T04:23:22.528Z,97588.41
2023-08-09T04:25:51.514Z,97579.09
2023-08-09T04:28:21.018Z,97592.59
2023-08-09T04:30:50.467Z,97592.06
2023-08-09T04:33:19.323Z,97593.22
2023-08-09T04:35:48.489Z,97593.72
2023-08-09T04:38:17.337Z,97595.72
2023-08-09T04:40:47.320Z,97607.69
2023-08-09T04:43:17.178Z,97606.22
2023-08-09T04:45:47.934Z,97610.34
2023-08-09T04:48:20.757Z,97616.31
2023-08-09T04:50:52.736Z,97615.66
2023-08-09T04:53:25.697Z,97617.81
2023-08-09T04:55:58.246Z,97618.75
2023-08-09T04:58:28.851Z,97615.59
2023-08-09T05:00:58.373Z,97620.84
2023-08-09T05:03:27.482Z,97625.13
2023-08-09T05:05:57.071Z,97621.28
2023-08-09T05:08:25.909Z,97614.09
2023-08-09T05:10:56.438Z,97621.75
2023-08-09T05:13:27.217Z,97616.91
2023-08-09T05:15:56.900Z,97621.50
2023-08-09T05:18:25.681Z,97621.28
2023-08-09T05:20:55.288Z,97623.13
2023-08-09T05:23:24.584Z,97616.91
2023-08-09T05:25:55.108Z,97618.56
2023-08-09T05:28:25.223Z,97622.34
2023-08-09T05:30:54.522Z,97622.31
2023-08-09T05:33:23.552Z,97622.88
2023-08-09T05:35:53.499Z,97614.78
2023-08-09T05:38:22.707Z,97619.75
2023-08-09T05:40:54.388Z,97625.09
2023-08-09T05:43:23.700Z,97619.28
2023-08-09T05:45:53.367Z,97616.31
2023-08-09T05:48:24.634Z,97613.34
2023-08-09T05:50:54.108Z,97614.75
2023-08-09T05:53:24.504Z,97621.22
2023-08-09T05:55:54.662Z,97620.75
2023-08-09T05:58:25.798Z,97619.91
2023-08-09T06:00:56.314Z,97615.47
2023-08-09T06:03:25.894Z,97611.91
2023-08-09T06:05:55.644Z,97612.84
2023-08-09T06:08:24.971Z,97604.13
2023-08-09T06:10:56.297Z,97609.47
2023-08-09T06:13:26.419Z,97614.25
2023-08-09T06:15:55.920Z,97608.19
2023-08-09T06:18:25.348Z,97612.19
2023-08-09T06:20:58.777Z,97605.22
2023-08-09T06:23:27.937Z,97596.50
2023-08-09T06:25:56.842Z,97600.91
2023-08-09T06:28:26.081Z,97598.53
2023-08-09T06:30:55.469Z,97595.22
2023-08-09T06:33:24.861Z,97592.41
2023-08-09T06:35:54.192Z,97591.28
2023-08-09T06:38:24.069Z,97593.00
2023-08-09T06:40:53.175Z,97591.47
2023-08-09T06:43:25.642Z,97592.13
2023-08-09T06:45:54.963Z,97589.50
2023-08-09T06:48:24.137Z,97604.13
2023-08-09T06:51:02.271Z,97594.50
2023-08-09T06:53:31.516Z,97597.22
2023-08-09T06:56:00.887Z,97595.53
2023-08-09T06:58:30.978Z,97596.66
2023-08-09T07:00:59.882Z,97595.38
2023-08-09T07:03:29.125Z,97591.56
2023-08-09T07:05:58.800Z,97597.19
2023-08-09T07:08:29.240Z,97590.31
2023-08-09T07:11:01.248Z,97586.53
2023-08-09T07:13:31.415Z,97591.66
2023-08-09T07:16:03.317Z,97599.44
2023-08-09T07:18:34.870Z,97591.13
2023-08-09T07:21:04.838Z,97589.13
2023-08-09T07:23:47.328Z,97587.91
2023-08-09T07:26:23.665Z,97585.22
2023-08-09T07:28:52.829Z,97578.34
2023-08-09T07:31:27.062Z,97586.00
2023-08-09T07:33:56.131Z,97578.03
2023-08-09T07:36:27.870Z,97573.88
2023-08-09T07:38:57.792Z,97564.91
2023-08-09T07:41:27.244Z,97572.84
2023-08-09T07:43:57.382Z,97572.13
2023-08-09T07:46:27.414Z,97567.69
2023-08-09T07:48:56.949Z,97562.00
2023-08-09T07:51:26.448Z,97562.09
2023-08-09T07:53:56.513Z,97561.59
2023-08-09T07:56:25.869Z,97566.78
2023-08-09T07:58:56.281Z,97565.28
2023-08-09T08:01:25.183Z,97561.41
2023-08-09T08:03:54.511Z,97566.28
2023-08-09T08:06:23.879Z,97573.16
2023-08-09T08:08:58.271Z,97561.56
2023-08-09T08:11:27.819Z,97557.19
2023-08-09T08:13:56.769Z,97555.59
2023-08-09T08:16:26.203Z,97555.47
2023-08-09T08:18:55.413Z,97557.06
2023-08-09T08:21:25.009Z,97552.91
2023-08-09T08:23:55.223Z,97547.09
2023-08-09T08:29:45.121Z,97531.38
2023-08-09T08:32:14.740Z,97534.03
2023-08-09T08:34:43.643Z,97523.19
2023-08-09T08:37:15.332Z,97515.34
2023-08-09T08:39:47.037Z,97519.22
2023-08-09T08:42:16.417Z,97523.44
2023-08-09T08:44:45.437Z,97510.81
2023-08-09T08:47:14.740Z,97518.38
2023-08-09T08:49:51.069Z,97514.50
2023-08-09T08:52:21.600Z,97516.72
2023-08-09T08:54:51.433Z,97513.72
2023-08-09T08:57:20.648Z,97508.91
2023-08-09T08:59:51.611Z,97501.25
2023-08-09T09:02:21.785Z,97501.44
2023-08-09T09:04:53.586Z,97498.56
2023-08-09T09:07:22.984Z,97499.13
2023-08-09T09:10:06.028Z,97491.19
2023-08-09T09:12:39.097Z,97490.00
2023-08-09T09:15:12.456Z,97487.13
2023-08-09T09:17:51.457Z,97492.94
2023-08-09T09:20:45.989Z,97481.59
2023-08-09T09:23:36.503Z,97484.97
2023-08-09T09:26:16.807Z,97474.16
2023-08-09T09:28:50.604Z,97477.41
2023-08-09T09:31:24.014Z,97483.41
2023-08-09T09:33:54.022Z,97484.25
2023-08-09T09:36:23.734Z,97476.31
2023-08-09T09:38:56.550Z,97475.88
2023-08-09T09:41:26.740Z,97469.25
2023-08-09T09:43:56.235Z,97468.44
2023-08-09T09:46:36.855Z,97456.03
2023-08-09T09:49:08.293Z,97468.53
2023-08-09T09:51:38.534Z,97471.09
2023-08-09T09:54:08.804Z,97469.03
2023-08-09T09:56:38.307Z,97471.75
2023-08-09T09:59:07.423Z,97464.03
2023-08-09T10:01:41.892Z,97464.66
2023-08-09T10:04:13.782Z,97464.19
2023-08-09T10:06:44.421Z,97467.38
2023-08-09T10:09:16.267Z,97466.66
2023-08-09T10:11:52.369Z,97469.88
2023-08-09T10:14:24.595Z,97468.53
2023-08-09T10:17:06.137Z,97462.09
2023-08-09T10:19:45.391Z,97461.88
2023-08-09T10:22:16.424Z,97456.56
2023-08-09T10:24:49.565Z,97445.13
2023-08-09T10:27:56.076Z,97452.25
2023-08-09T10:30:33.236Z,97442.44
2023-08-09T10:33:02.886Z,97448.13
2023-08-09T10:35:52.550Z,97441.88
2023-08-09T10:38:48.181Z,97437.16
2023-08-09T10:41:27.534Z,97434.38
2023-08-09T10:44:06.810Z,97440.41
2023-08-09T10:46:37.195Z,97436.44
2023-08-09T10:49:07.540Z,97432.91
2023-08-09T10:51:47.879Z,97426.19
2023-08-09T10:54:23.477Z,97424.66
2023-08-09T10:56:52.713Z,97432.63
2023-08-09T10:59:30.087Z,97422.53
2023-08-09T11:02:00.474Z,97418.38
2023-08-09T11:04:30.245Z,97416.44
2023-08-09T11:07:01.828Z,97417.09
2023-08-09T11:09:34.302Z,97404.84
2023-08-09T11:12:03.509Z,97407.72
2023-08-09T11:14:34.784Z,97405.03
2023-08-09T11:17:04.364Z,97396.69
2023-08-09T11:19:36.577Z,97402.94
2023-08-09T11:22:06.977Z,97398.09
2023-08-09T11:24:36.595Z,97403.59
2023-08-09T11:27:05.596Z,97404.69
2023-08-09T11:29:36.455Z,97400.09
2023-08-09T11:32:06.424Z,97401.19
2023-08-09T11:34:35.457Z,97399.44
2023-08-09T11:37:04.520Z,97396.03
2023-08-09T11:39:34.352Z,97403.75
2023-08-09T11:42:03.597Z,97400.56
2023-08-09T11:44:37.613Z,97402.00
2023-08-09T11:47:08.486Z,97391.88
2023-08-09T11:49:38.277Z,97398.53
2023-08-09T11:52:08.463Z,97392.31
2023-08-09T11:54:39.623Z,97395.53
2023-08-09T11:57:09.668Z,97381.88
2023-08-09T11:59:44.616Z,97380.38
2023-08-09T12:02:14.015Z,97377.25
2023-08-09T12:04:58.130Z,97375.50
2023-08-09T12:08:06.596Z,97375.28
2023-08-09T12:10:44.579Z,97370.16
2023-08-09T12:13:13.889Z,97370.97
2023-08-09T12:15:42.893Z,97373.88
2023-08-09T12:18:12.306Z,97374.00
2023-08-09T12:20:41.195Z,97378.69
2023-08-09T12:23:10.186Z,97385.69
2023-08-09T12:25:39.871Z,97385.31
2023-08-09T12:28:09.865Z,97394.28
2023-08-09T12:30:40.474Z,97380.63
2023-08-09T12:33:11.653Z,97382.19
2023-08-09T12:35:40.541Z,97382.44
2023-08-09T12:38:09.598Z,97389.16
2023-08-09T12:40:40.415Z,97387.47
2023-08-09T12:43:10.122Z,97385.84
2023-08-09T12:45:39.146Z,97392.59
2023-08-09T12:48:13.193Z,97384.91
2023-08-09T12:50:42.294Z,97393.06
2023-08-09T12:53:11.165Z,97392.97
2023-08-09T12:55:40.512Z,97392.13
2023-08-09T12:58:09.240Z,97405.66
2023-08-09T13:00:38.594Z,97389.28
2023-08-09T13:03:08.939Z,97386.84
2023-08-09T13:05:39.036Z,97383.25
2023-08-09T13:08:08.264Z,97389.75
2023-08-09T13:10:37.095Z,97394.78
2023-08-09T13:13:06.611Z,97401.41
2023-08-09T13:15:35.584Z,97394.19
2023-08-09T13:18:04.766Z,97395.56
2023-08-09T13:20:34.023Z,97399.22
2023-08-09T13:23:03.538Z,97401.91
2023-08-09T13:25:32.744Z,97407.59
2023-08-09T13:28:05.714Z,97411.66
2023-08-09T13:30:35.347Z,97401.97
2023-08-09T13:33:06.106Z,97407.78
2023-08-09T13:35:36.443Z,97406.03
2023-08-09T13:38:06.907Z,97408.69
2023-08-09T13:40:36.809Z,97406.56
